sensor_id;sensor_type;location;lat;lon;timestamp;pressure;altitude;pressure_sealevel;temperature;humidity
69982;BME280;57319;56.274;43.980;2023-08-31T00:00:32;99818.47;;;11.28;98.29
69982;BME280;57319;56.274;43.980;2023-08-31T00:03:00;99811.66;;;11.24;98.12
69982;BME280;57319;56.274;43.980;2023-08-31T00:05:25;99807.44;;;11.21;98.37
69982;BME280;57319;56.274;43.980;2023-08-31T00:07:54;99803.16;;;11.20;98.54
69982;BME280;57319;56.274;43.980;2023-08-31T00:10:20;99809.09;;;11.24;98.41
69982;BME280;57319;56.274;43.980;2023-08-31T00:12:46;99808.31;;;11.20;98.20
69982;BME280;57319;56.274;43.980;2023-08-31T00:15:11;99815.25;;;11.15;98.43
69982;BME280;57319;56.274;43.980;2023-08-31T00:17:38;99817.81;;;11.15;98.12
69982;BME280;57319;56.274;43.980;2023-08-31T00:20:06;99814.44;;;11.13;98.04
69982;BME280;57319;56.274;43.980;2023-08-31T00:22:33;99823.88;;;11.11;98.50
69982;BME280;57319;56.274;43.980;2023-08-31T00:24:58;99828.16;;;11.12;98.11
69982;BME280;57319;56.274;43.980;2023-08-31T00:27:24;99815.28;;;11.12;98.28
69982;BME280;57319;56.274;43.980;2023-08-31T00:29:50;99810.97;;;11.12;98.16
69982;BME280;57319;56.274;43.980;2023-08-31T00:32:19;99814.38;;;11.16;98.55
69982;BME280;57319;56.274;43.980;2023-08-31T00:34:48;99810.00;;;11.19;98.53
69982;BME280;57319;56.274;43.980;2023-08-31T00:37:13;99815.97;;;11.23;98.42
69982;BME280;57319;56.274;43.980;2023-08-31T00:39:39;99808.22;;;11.25;98.54
69982;BME280;57319;56.274;43.980;2023-08-31T00:42:05;99819.38;;;11.27;98.74
69982;BME280;57319;56.274;43.980;2023-08-31T00:44:30;99815.06;;;11.27;98.40
69982;BME280;57319;56.274;43.980;2023-08-31T00:46:56;99820.19;;;11.29;98.57
69982;BME280;57319;56.274;43.980;2023-08-31T00:49:22;99818.47;;;11.31;98.76
69982;BME280;57319;56.274;43.980;2023-08-31T00:51:49;99816.72;;;11.31;98.84
69982;BME280;57319;56.274;43.980;2023-08-31T00:54:19;99819.31;;;11.31;99.02
69982;BME280;57319;56.274;43.980;2023-08-31T00:56:53;99824.44;;;11.33;99.14
69982;BME280;57319;56.274;43.980;2023-08-31T00:59:19;99819.25;;;11.34;99.53
69982;BME280;57319;56.274;43.980;2023-08-31T01:02:11;99823.53;;;11.35;99.40
69982;BME280;57319;56.274;43.980;2023-08-31T01:10:44;99828.78;;;11.29;100.00
69982;BME280;57319;56.274;43.980;2023-08-31T01:13:14;99827.06;;;11.30;99.86
69982;BME280;57319;56.274;43.980;2023-08-31T01:15:45;99830.44;;;11.32;99.81
69982;BME280;57319;56.274;43.980;2023-08-31T01:18:16;99830.44;;;11.32;100.00
69982;BME280;57319;56.274;43.980;2023-08-31T01:23:52;99831.34;;;11.31;100.00
69982;BME280;57319;56.274;43.980;2023-08-31T01:26:22;99833.06;;;11.30;100.00
69982;BME280;57319;56.274;43.980;2023-08-31T01:28:48;99824.50;;;11.28;99.97
69982;BME280;57319;56.274;43.980;2023-08-31T01:31:15;99831.38;;;11.26;100.00
69982;BME280;57319;56.274;43.980;2023-08-31T01:33:41;99834.88;;;11.25;100.00
69982;BME280;57319;56.274;43.980;2023-08-31T01:36:30;99835.78;;;11.21;100.00
69982;BME280;57319;56.274;43.980;2023-08-31T01:39:13;99840.94;;;11.18;100.00
69982;BME280;57319;56.274;43.980;2023-08-31T01:41:43;99849.56;;;11.15;100.00
69982;BME280;57319;56.274;43.980;2023-08-31T01:44:12;99850.50;;;11.13;100.00
69982;BME280;57319;56.274;43.980;2023-08-31T01:46:41;99848.81;;;11.10;100.00
69982;BME280;57319;56.274;43.980;2023-08-31T01:49:07;99848.81;;;11.09;100.00
69982;BME280;57319;56.274;43.980;2023-08-31T01:51:33;99852.28;;;11.08;100.00
69982;BME280;57319;56.274;43.980;2023-08-31T01:53:59;99842.81;;;11.07;100.00
69982;BME280;57319;56.274;43.980;2023-08-31T01:56:24;99847.97;;;11.07;100.00
69982;BME280;57319;56.274;43.980;2023-08-31T01:58:50;99853.16;;;11.05;100.00
69982;BME280;57319;56.274;43.980;2023-08-31T02:01:15;99848.03;;;11.03;100.00
69982;BME280;57319;56.274;43.980;2023-08-31T02:03:43;99858.38;;;11.00;100.00
69982;BME280;57319;56.274;43.980;2023-08-31T02:06:08;99854.97;;;10.98;100.00
69982;BME280;57319;56.274;43.980;2023-08-31T02:08:34;99853.25;;;10.97;100.00
69982;BME280;57319;56.274;43.980;2023-08-31T02:11:00;99855.06;;;10.92;99.97
69982;BME280;57319;56.274;43.980;2023-08-31T02:13:25;99856.81;;;10.87;99.98
69982;BME280;57319;56.274;43.980;2023-08-31T02:15:52;99850.00;;;10.83;99.50
69982;BME280;57319;56.274;43.980;2023-08-31T02:18:18;99850.06;;;10.80;99.65
69982;BME280;57319;56.274;43.980;2023-08-31T02:20:43;99850.91;;;10.79;99.17
69982;BME280;57319;56.274;43.980;2023-08-31T02:23:09;99854.41;;;10.75;99.03
69982;BME280;57319;56.274;43.980;2023-08-31T02:25:35;99852.69;;;10.72;98.45
69982;BME280;57319;56.274;43.980;2023-08-31T02:28:00;99858.69;;;10.73;98.45
69982;BME280;57319;56.274;43.980;2023-08-31T02:30:26;99857.88;;;10.71;98.53
69982;BME280;57319;56.274;43.980;2023-08-31T02:32:52;99853.59;;;10.68;98.64
69982;BME280;57319;56.274;43.980;2023-08-31T02:35:18;99849.31;;;10.68;98.33
69982;BME280;57319;56.274;43.980;2023-08-31T02:37:43;99852.75;;;10.66;98.50
69982;BME280;57319;56.274;43.980;2023-08-31T02:40:09;99857.03;;;10.67;98.58
69982;BME280;57319;56.274;43.980;2023-08-31T02:42:36;99857.06;;;10.65;98.45
69982;BME280;57319;56.274;43.980;2023-08-31T02:45:01;99866.50;;;10.66;98.47
69982;BME280;57319;56.274;43.980;2023-08-31T02:47:30;99868.22;;;10.67;98.72
69982;BME280;57319;56.274;43.980;2023-08-31T02:49:56;99873.31;;;10.72;98.52
69982;BME280;57319;56.274;43.980;2023-08-31T02:52:22;99871.56;;;10.76;99.21
69982;BME280;57319;56.274;43.980;2023-08-31T02:54:47;99877.47;;;10.84;99.82
69982;BME280;57319;56.274;43.980;2023-08-31T02:57:13;99879.13;;;10.88;100.00
69982;BME280;57319;56.274;43.980;2023-08-31T02:59:40;99889.31;;;10.96;99.56
69982;BME280;57319;56.274;43.980;2023-08-31T03:02:07;99880.66;;;11.01;99.50
69982;BME280;57319;56.274;43.980;2023-08-31T03:04:33;99877.19;;;11.06;99.32
69982;BME280;57319;56.274;43.980;2023-08-31T03:06:59;99871.16;;;11.07;98.87
69982;BME280;57319;56.274;43.980;2023-08-31T03:09:25;99872.81;;;11.11;98.28
69982;BME280;57319;56.274;43.980;2023-08-31T03:11:50;99864.19;;;11.15;97.54
69982;BME280;57319;56.274;43.980;2023-08-31T03:14:16;99875.25;;;11.22;97.58
69982;BME280;57319;56.274;43.980;2023-08-31T03:16:41;99872.53;;;11.32;96.69
69982;BME280;57319;56.274;43.980;2023-08-31T03:19:07;99868.09;;;11.44;96.69
69982;BME280;57319;56.274;43.980;2023-08-31T03:21:33;99869.53;;;11.62;95.72
69982;BME280;57319;56.274;43.980;2023-08-31T03:23:59;99866.56;;;11.86;95.09
69982;BME280;57319;56.274;43.980;2023-08-31T03:26:25;99867.09;;;12.09;94.60
69982;BME280;57319;56.274;43.980;2023-08-31T03:28:50;99872.78;;;12.28;93.21
69982;BME280;57319;56.274;43.980;2023-08-31T03:31:16;99871.56;;;12.49;92.68
69982;BME280;57319;56.274;43.980;2023-08-31T03:33:41;99880.69;;;12.67;91.28
69982;BME280;57319;56.274;43.980;2023-08-31T03:36:07;99877.75;;;12.84;89.89
69982;BME280;57319;56.274;43.980;2023-08-31T03:38:33;99880.00;;;13.01;88.25
69982;BME280;57319;56.274;43.980;2023-08-31T03:41:03;99872.78;;;13.17;87.81
69982;BME280;57319;56.274;43.980;2023-08-31T03:43:28;99875.09;;;13.29;87.61
69982;BME280;57319;56.274;43.980;2023-08-31T03:45:55;99880.03;;;13.42;87.11
69982;BME280;57319;56.274;43.980;2023-08-31T03:48:26;99883.22;;;13.53;86.33
69982;BME280;57319;56.274;43.980;2023-08-31T03:50:53;99877.00;;;13.62;85.72
69982;BME280;57319;56.274;43.980;2023-08-31T03:53:19;99877.72;;;13.68;85.22
69982;BME280;57319;56.274;43.980;2023-08-31T03:55:44;99884.41;;;13.77;85.36
69982;BME280;57319;56.274;43.980;2023-08-31T03:58:10;99883.31;;;13.86;84.10
69982;BME280;57319;56.274;43.980;2023-08-31T04:00:37;99888.41;;;13.90;84.45
69982;BME280;57319;56.274;43.980;2023-08-31T04:03:04;99891.19;;;13.81;85.97
69982;BME280;57319;56.274;43.980;2023-08-31T04:05:33;99892.44;;;13.65;87.02
69982;BME280;57319;56.274;43.980;2023-08-31T04:07:59;99890.13;;;13.52;87.39
69982;BME280;57319;56.274;43.980;2023-08-31T04:10:25;99887.13;;;13.32;87.63
69982;BME280;57319;56.274;43.980;2023-08-31T04:12:51;99878.03;;;13.14;88.62
69982;BME280;57319;56.274;43.980;2023-08-31T04:15:17;99885.16;;;13.02;89.20
69982;BME280;57319;56.274;43.980;2023-08-31T04:17:43;99886.03;;;13.01;89.12
69982;BME280;57319;56.274;43.980;2023-08-31T04:20:09;99888.69;;;12.97;89.69
69982;BME280;57319;56.274;43.980;2023-08-31T04:22:35;99883.63;;;12.92;90.05
69982;BME280;57319;56.274;43.980;2023-08-31T04:25:01;99886.22;;;12.92;90.49
69982;BME280;57319;56.274;43.980;2023-08-31T04:27:26;99888.75;;;12.94;90.42
69982;BME280;57319;56.274;43.980;2023-08-31T04:29:52;99894.72;;;12.97;90.54
69982;BME280;57319;56.274;43.980;2023-08-31T04:32:18;99902.34;;;13.03;90.31
69982;BME280;57319;56.274;43.980;2023-08-31T04:34:44;99898.78;;;13.09;90.18
69982;BME280;57319;56.274;43.980;2023-08-31T04:37:09;99901.28;;;13.14;90.16
69982;BME280;57319;56.274;43.980;2023-08-31T04:39:35;99904.56;;;13.22;90.10
69982;BME280;57319;56.274;43.980;2023-08-31T04:42:00;99897.56;;;13.27;89.88
69982;BME280;57319;56.274;43.980;2023-08-31T04:44:26;99900.88;;;13.35;89.62
69982;BME280;57319;56.274;43.980;2023-08-31T04:46:51;99901.56;;;13.42;89.46
69982;BME280;57319;56.274;43.980;2023-08-31T04:49:17;99903.06;;;13.52;89.24
69982;BME280;57319;56.274;43.980;2023-08-31T04:51:44;99900.25;;;13.63;89.03
69982;BME280;57319;56.274;43.980;2023-08-31T04:54:09;99898.25;;;13.74;88.87
69982;BME280;57319;56.274;43.980;2023-08-31T04:56:36;99895.38;;;13.87;89.00
69982;BME280;57319;56.274;43.980;2023-08-31T04:59:01;99895.19;;;13.95;88.47
69982;BME280;57319;56.274;43.980;2023-08-31T05:01:28;99894.09;;;14.03;88.16
69982;BME280;57319;56.274;43.980;2023-08-31T05:03:54;99894.81;;;14.10;87.64
69982;BME280;57319;56.274;43.980;2023-08-31T05:06:19;99897.22;;;14.16;87.25
69982;BME280;57319;56.274;43.980;2023-08-31T05:08:47;99905.69;;;14.23;86.49
69982;BME280;57319;56.274;43.980;2023-08-31T05:11:13;99910.78;;;14.28;85.89
69982;BME280;57319;56.274;43.980;2023-08-31T05:13:38;99912.44;;;14.29;85.31
69982;BME280;57319;56.274;43.980;2023-08-31T05:16:08;99918.38;;;14.34;84.92
69982;BME280;57319;56.274;43.980;2023-08-31T05:18:33;99919.94;;;14.39;84.85
69982;BME280;57319;56.274;43.980;2023-08-31T05:20:59;99925.13;;;14.39;84.23
69982;BME280;57319;56.274;43.980;2023-08-31T05:23:24;99924.13;;;14.45;84.50
69982;BME280;57319;56.274;43.980;2023-08-31T05:25:50;99934.16;;;14.57;84.71
69982;BME280;57319;56.274;43.980;2023-08-31T05:28:15;99927.94;;;14.66;84.88
69982;BME280;57319;56.274;43.980;2023-08-31T05:30:51;99935.41;;;14.77;85.06
69982;BME280;57319;56.274;43.980;2023-08-31T05:33:19;99936.91;;;14.86;85.46
69982;BME280;57319;56.274;43.980;2023-08-31T05:35:47;99936.81;;;14.89;84.88
69982;BME280;57319;56.274;43.980;2023-08-31T05:38:13;99944.34;;;14.98;84.15
69982;BME280;57319;56.274;43.980;2023-08-31T05:40:39;99939.78;;;15.06;83.33
69982;BME280;57319;56.274;43.980;2023-08-31T05:43:04;99944.72;;;15.16;82.52
69982;BME280;57319;56.274;43.980;2023-08-31T05:45:34;99950.47;;;15.25;81.49
69982;BME280;57319;56.274;43.980;2023-08-31T05:48:00;99958.03;;;15.33;81.13
69982;BME280;57319;56.274;43.980;2023-08-31T05:50:26;99950.84;;;15.43;80.58
69982;BME280;57319;56.274;43.980;2023-08-31T05:52:52;99949.72;;;15.52;80.48
69982;BME280;57319;56.274;43.980;2023-08-31T05:55:18;99955.56;;;15.58;78.27
69982;BME280;57319;56.274;43.980;2023-08-31T05:57:43;99954.16;;;15.76;77.94
69982;BME280;57319;56.274;43.980;2023-08-31T06:00:09;99958.09;;;15.90;75.78
69982;BME280;57319;56.274;43.980;2023-08-31T06:02:35;99969.66;;;16.08;73.69
69982;BME280;57319;56.274;43.980;2023-08-31T06:05:01;99972.78;;;16.18;73.39
69982;BME280;57319;56.274;43.980;2023-08-31T06:07:29;99969.09;;;16.25;73.00
69982;BME280;57319;56.274;43.980;2023-08-31T06:09:55;99968.69;;;16.37;72.29
69982;BME280;57319;56.274;43.980;2023-08-31T06:12:21;99960.53;;;16.48;71.42
69982;BME280;57319;56.274;43.980;2023-08-31T06:14:47;99956.88;;;16.54;70.12
69982;BME280;57319;56.274;43.980;2023-08-31T06:17:12;99957.75;;;16.54;68.91
69982;BME280;57319;56.274;43.980;2023-08-31T06:19:39;99956.63;;;16.61;69.53
69982;BME280;57319;56.274;43.980;2023-08-31T06:22:04;99966.06;;;16.64;68.42
69982;BME280;57319;56.274;43.980;2023-08-31T06:24:30;99961.28;;;16.77;68.81
69982;BME280;57319;56.274;43.980;2023-08-31T06:26:57;99964.34;;;16.88;68.54
69982;BME280;57319;56.274;43.980;2023-08-31T06:29:23;99977.91;;;16.98;68.24
69982;BME280;57319;56.274;43.980;2023-08-31T06:31:49;99977.56;;;17.07;68.06
69982;BME280;57319;56.274;43.980;2023-08-31T06:34:15;99984.41;;;17.10;67.87
69982;BME280;57319;56.274;43.980;2023-08-31T06:36:41;99978.88;;;17.19;68.00
69982;BME280;57319;56.274;43.980;2023-08-31T06:39:07;99983.81;;;17.27;67.69
69982;BME280;57319;56.274;43.980;2023-08-31T06:41:32;99977.75;;;17.26;66.56
69982;BME280;57319;56.274;43.980;2023-08-31T06:43:58;99972.41;;;17.31;66.67
69982;BME280;57319;56.274;43.980;2023-08-31T06:46:24;99965.38;;;17.33;66.21
69982;BME280;57319;56.274;43.980;2023-08-31T06:48:50;99962.72;;;17.35;66.35
69982;BME280;57319;56.274;43.980;2023-08-31T06:51:15;99971.13;;;17.41;66.39
69982;BME280;57319;56.274;43.980;2023-08-31T06:53:44;99969.91;;;17.52;66.34
69982;BME280;57319;56.274;43.980;2023-08-31T06:56:10;99978.25;;;17.60;66.36
69982;BME280;57319;56.274;43.980;2023-08-31T06:58:35;99974.50;;;17.67;66.37
69982;BME280;57319;56.274;43.980;2023-08-31T07:01:05;99975.97;;;17.74;66.07
69982;BME280;57319;56.274;43.980;2023-08-31T07:03:31;99974.09;;;17.78;65.92
69982;BME280;57319;56.274;43.980;2023-08-31T07:05:57;99976.50;;;17.83;65.85
69982;BME280;57319;56.274;43.980;2023-08-31T07:08:23;99973.00;;;17.84;65.34
69982;BME280;57319;56.274;43.980;2023-08-31T07:10:52;99967.91;;;17.80;64.90
69982;BME280;57319;56.274;43.980;2023-08-31T07:13:17;99965.19;;;17.84;64.37
69982;BME280;57319;56.274;43.980;2023-08-31T07:15:43;99968.47;;;17.89;64.77
69982;BME280;57319;56.274;43.980;2023-08-31T07:18:08;99953.81;;;17.86;64.75
69982;BME280;57319;56.274;43.980;2023-08-31T07:20:34;99966.63;;;17.91;64.84
69982;BME280;57319;56.274;43.980;2023-08-31T07:22:59;99962.19;;;17.94;64.80
69982;BME280;57319;56.274;43.980;2023-08-31T07:25:25;99963.63;;;18.02;64.49
69982;BME280;57319;56.274;43.980;2023-08-31T07:27:51;99968.78;;;18.03;63.86
69982;BME280;57319;56.274;43.980;2023-08-31T07:30:17;99964.47;;;18.02;63.86
69982;BME280;57319;56.274;43.980;2023-08-31T07:32:43;99966.91;;;18.07;63.61
69982;BME280;57319;56.274;43.980;2023-08-31T07:35:09;99958.97;;;18.10;63.34
69982;BME280;57319;56.274;43.980;2023-08-31T07:37:35;99957.94;;;18.14;63.60
69982;BME280;57319;56.274;43.980;2023-08-31T07:40:03;99961.28;;;18.18;63.53
69982;BME280;57319;56.274;43.980;2023-08-31T07:42:29;99960.94;;;18.25;63.18
69982;BME280;57319;56.274;43.980;2023-08-31T07:44:55;99960.56;;;18.35;63.26
69982;BME280;57319;56.274;43.980;2023-08-31T07:47:21;99958.41;;;18.44;63.51
69982;BME280;57319;56.274;43.980;2023-08-31T07:49:47;99958.22;;;18.49;63.04
69982;BME280;57319;56.274;43.980;2023-08-31T07:52:12;99958.81;;;18.56;62.41
69982;BME280;57319;56.274;43.980;2023-08-31T07:54:38;99953.47;;;18.59;61.38
69982;BME280;57319;56.274;43.980;2023-08-31T07:57:04;99955.66;;;18.68;61.22
69982;BME280;57319;56.274;43.980;2023-08-31T07:59:29;99943.22;;;18.75;62.15
69982;BME280;57319;56.274;43.980;2023-08-31T08:01:55;99948.34;;;18.76;63.25
69982;BME280;57319;56.274;43.980;2023-08-31T08:04:20;99945.66;;;18.79;62.05
69982;BME280;57319;56.274;43.980;2023-08-31T08:06:46;99951.41;;;18.88;61.23
69982;BME280;57319;56.274;43.980;2023-08-31T08:09:12;99946.81;;;18.93;60.29
69982;BME280;57319;56.274;43.980;2023-08-31T08:11:38;99945.69;;;18.98;59.79
69982;BME280;57319;56.274;43.980;2023-08-31T08:14:05;99944.00;;;18.97;59.45
69982;BME280;57319;56.274;43.980;2023-08-31T08:16:31;99942.81;;;19.05;59.33
69982;BME280;57319;56.274;43.980;2023-08-31T08:18:57;99948.69;;;19.10;59.94
69982;BME280;57319;56.274;43.980;2023-08-31T08:21:23;99946.97;;;19.09;61.02
69982;BME280;57319;56.274;43.980;2023-08-31T08:23:49;99942.47;;;19.12;61.13
69982;BME280;57319;56.274;43.980;2023-08-31T08:26:16;99943.47;;;19.10;60.48
69982;BME280;57319;56.274;43.980;2023-08-31T08:28:41;99944.59;;;19.04;59.96
69982;BME280;57319;56.274;43.980;2023-08-31T08:31:07;99938.78;;;18.97;60.38
69982;BME280;57319;56.274;43.980;2023-08-31T08:33:32;99945.44;;;19.05;60.71
69982;BME280;57319;56.274;43.980;2023-08-31T08:35:58;99942.75;;;19.06;60.43
69982;BME280;57319;56.274;43.980;2023-08-31T08:38:27;99939.81;;;19.14;60.33
69982;BME280;57319;56.274;43.980;2023-08-31T08:40:53;99936.97;;;19.19;59.54
69982;BME280;57319;56.274;43.980;2023-08-31T08:43:26;99939.34;;;19.23;60.11
69982;BME280;57319;56.274;43.980;2023-08-31T08:45:54;99936.06;;;19.20;60.04
69982;BME280;57319;56.274;43.980;2023-08-31T08:48:25;99949.50;;;19.10;59.40
69982;BME280;57319;56.274;43.980;2023-08-31T08:50:51;99939.88;;;19.12;59.17
69982;BME280;57319;56.274;43.980;2023-08-31T08:53:18;99949.50;;;19.10;58.84
69982;BME280;57319;56.274;43.980;2023-08-31T08:55:44;99954.31;;;19.20;58.52
69982;BME280;57319;56.274;43.980;2023-08-31T08:58:28;99957.34;;;19.29;57.79
69982;BME280;57319;56.274;43.980;2023-08-31T09:00:54;99963.78;;;19.41;58.33
69982;BME280;57319;56.274;43.980;2023-08-31T09:03:23;99954.09;;;19.43;57.64
69982;BME280;57319;56.274;43.980;2023-08-31T09:05:50;99960.53;;;19.55;57.31
69982;BME280;57319;56.274;43.980;2023-08-31T09:08:17;99962.59;;;19.48;56.88
69982;BME280;57319;56.274;43.980;2023-08-31T09:10:43;99957.50;;;19.45;56.33
69982;BME280;57319;56.274;43.980;2023-08-31T09:13:14;99954.03;;;19.45;56.27
69982;BME280;57319;56.274;43.980;2023-08-31T09:15:46;99951.00;;;19.35;55.88
69982;BME280;57319;56.274;43.980;2023-08-31T09:18:29;99952.63;;;19.38;56.27
69982;BME280;57319;56.274;43.980;2023-08-31T09:20:57;99953.88;;;19.48;56.25
69982;BME280;57319;56.274;43.980;2023-08-31T09:23:23;99951.50;;;19.62;56.07
69982;BME280;57319;56.274;43.980;2023-08-31T09:25:51;99954.19;;;19.61;54.34
69982;BME280;57319;56.274;43.980;2023-08-31T09:28:21;99961.28;;;19.76;54.79
69982;BME280;57319;56.274;43.980;2023-08-31T09:30:47;99952.72;;;19.92;54.32
69982;BME280;57319;56.274;43.980;2023-08-31T09:33:16;99954.00;;;20.02;53.66
69982;BME280;57319;56.274;43.980;2023-08-31T09:35:53;99956.53;;;20.04;52.13
69982;BME280;57319;56.274;43.980;2023-08-31T09:38:20;99956.44;;;20.05;52.82
69982;BME280;57319;56.274;43.980;2023-08-31T09:40:46;99948.59;;;20.05;52.62
69982;BME280;57319;56.274;43.980;2023-08-31T09:43:18;99946.16;;;20.02;52.39
69982;BME280;57319;56.274;43.980;2023-08-31T09:45:45;99950.47;;;20.03;52.42
69982;BME280;57319;56.274;43.980;2023-08-31T09:48:20;99946.31;;;20.16;51.98
69982;BME280;57319;56.274;43.980;2023-08-31T09:50:48;99944.94;;;20.27;51.12
69982;BME280;57319;56.274;43.980;2023-08-31T09:53:16;99946.31;;;20.34;51.24
69982;BME280;57319;56.274;43.980;2023-08-31T09:55:43;99947.16;;;20.34;51.18
69982;BME280;57319;56.274;43.980;2023-08-31T09:58:20;99950.09;;;20.46;49.61
69982;BME280;57319;56.274;43.980;2023-08-31T10:00:49;99951.22;;;20.58;49.86
69982;BME280;57319;56.274;43.980;2023-08-31T10:03:15;99946.16;;;20.72;49.09
69982;BME280;57319;56.274;43.980;2023-08-31T10:05:47;99951.50;;;20.87;47.74
69982;BME280;57319;56.274;43.980;2023-08-31T10:08:14;99954.09;;;21.04;47.83
69982;BME280;57319;56.274;43.980;2023-08-31T10:10:41;99948.97;;;20.85;47.65
69982;BME280;57319;56.274;43.980;2023-08-31T10:13:07;99944.28;;;20.92;48.57
69982;BME280;57319;56.274;43.980;2023-08-31T10:15:34;99940.03;;;20.89;48.43
69982;BME280;57319;56.274;43.980;2023-08-31T10:18:06;99936.59;;;20.89;48.62
69982;BME280;57319;56.274;43.980;2023-08-31T10:20:33;99937.94;;;20.96;48.57
69982;BME280;57319;56.274;43.980;2023-08-31T10:23:04;99941.19;;;21.01;48.29
69982;BME280;57319;56.274;43.980;2023-08-31T10:28:21;99932.41;;;21.02;48.08
69982;BME280;57319;56.274;43.980;2023-08-31T10:31:05;99932.53;;;20.99;48.49
69982;BME280;57319;56.274;43.980;2023-08-31T10:33:34;99939.56;;;20.98;48.72
69982;BME280;57319;56.274;43.980;2023-08-31T10:36:01;99933.16;;;21.04;48.98
69982;BME280;57319;56.274;43.980;2023-08-31T10:38:31;99928.75;;;21.05;47.88
69982;BME280;57319;56.274;43.980;2023-08-31T10:41:03;99941.69;;;21.08;48.10
69982;BME280;57319;56.274;43.980;2023-08-31T10:43:56;99931.09;;;21.27;45.92
69982;BME280;57319;56.274;43.980;2023-08-31T10:46:34;99924.25;;;21.24;47.18
69982;BME280;57319;56.274;43.980;2023-08-31T10:51:40;99926.41;;;21.32;45.92
69982;BME280;57319;56.274;43.980;2023-08-31T10:54:19;99926.25;;;21.19;44.88
